createdAt,value
2023-05-06T00:02:15.125Z,4.72
2023-05-06T00:04:42.033Z,5.05
2023-05-06T00:07:09.164Z,5.38
2023-05-06T00:09:35.904Z,5.38
2023-05-06T00:12:02.887Z,5.28
2023-05-06T00:14:29.646Z,5.57
2023-05-06T00:16:56.397Z,5.30
2023-05-06T00:19:23.656Z,5.28
2023-05-06T00:21:50.353Z,5.20
2023-05-06T00:24:17.124Z,4.50
2023-05-06T00:26:43.976Z,4.20
2023-05-06T00:29:10.735Z,4.30
2023-05-06T00:31:37.478Z,4.75
2023-05-06T00:34:04.240Z,4.63
2023-05-06T00:36:31.928Z,4.85
2023-05-06T00:38:58.755Z,4.20
2023-05-06T00:41:25.566Z,4.22
2023-05-06T00:43:52.382Z,4.20
2023-05-06T00:46:19.153Z,4.32
2023-05-06T00:48:45.959Z,4.55
2023-05-06T00:51:13.143Z,4.85
2023-05-06T00:53:40.446Z,4.68
2023-05-06T00:56:07.968Z,4.70
2023-05-06T00:58:35.043Z,4.25
2023-05-06T01:01:02.219Z,3.90
2023-05-06T01:03:29.339Z,3.63
2023-05-06T01:06:20.838Z,3.60
2023-05-06T01:09:22.079Z,3.90
2023-05-06T01:12:08.374Z,3.70
2023-05-06T01:15:10.720Z,3.60
2023-05-06T01:17:41.951Z,3.80
2023-05-06T01:20:12.244Z,3.83
2023-05-06T01:22:39.302Z,4.43
2023-05-06T01:25:06.855Z,4.38
2023-05-06T01:27:33.721Z,5.00
2023-05-06T01:30:00.905Z,5.25
2023-05-06T01:33:04.758Z,4.60
2023-05-06T01:36:04.169Z,4.30
2023-05-06T01:38:44.856Z,4.70
2023-05-06T01:41:16.579Z,4.82
2023-05-06T01:43:45.116Z,4.47
2023-05-06T01:46:18.215Z,4.82
2023-05-06T01:48:46.221Z,4.70
2023-05-06T01:51:13.188Z,4.97
2023-05-06T01:53:39.917Z,4.95
2023-05-06T01:56:07.062Z,4.82
2023-05-06T01:58:33.733Z,4.47
2023-05-06T02:01:00.452Z,4.90
2023-05-06T02:03:27.243Z,4.70
2023-05-06T02:05:53.946Z,5.10
2023-05-06T02:08:20.851Z,4.80
2023-05-06T02:10:47.515Z,4.82
2023-05-06T02:13:14.312Z,4.60
2023-05-06T02:15:41.162Z,4.40
2023-05-06T02:18:08.173Z,4.07
2023-05-06T02:20:34.851Z,4.10
2023-05-06T02:23:01.593Z,3.85
2023-05-06T02:25:28.411Z,3.90
2023-05-06T02:27:55.152Z,4.45
2023-05-06T02:30:21.889Z,5.30
2023-05-06T02:32:48.654Z,6.13
2023-05-06T02:35:15.410Z,6.32
2023-05-06T02:37:42.147Z,7.03
2023-05-06T02:40:10.300Z,6.90
2023-05-06T02:42:37.382Z,6.57
2023-05-06T02:45:04.753Z,7.20
2023-05-06T02:47:31.473Z,6.82
2023-05-06T02:49:58.360Z,6.30
2023-05-06T02:52:25.106Z,5.78
2023-05-06T02:54:52.070Z,6.03
2023-05-06T02:57:18.826Z,6.10
2023-05-06T02:59:45.505Z,6.07
2023-05-06T03:02:12.610Z,6.30
2023-05-06T03:04:39.359Z,5.57
2023-05-06T03:07:06.096Z,5.85
2023-05-06T03:09:32.794Z,6.10
2023-05-06T03:11:59.512Z,5.50
2023-05-06T03:14:26.426Z,5.55
2023-05-06T03:16:53.253Z,5.50
2023-05-06T03:19:20.082Z,5.50
2023-05-06T03:21:46.835Z,5.15
2023-05-06T03:24:13.510Z,6.05
2023-05-06T03:26:40.400Z,6.90
2023-05-06T03:29:07.206Z,7.53
2023-05-06T03:31:33.930Z,6.97
2023-05-06T03:34:00.702Z,7.45
2023-05-06T03:36:28.322Z,9.07
2023-05-06T03:38:55.447Z,8.55
2023-05-06T03:41:22.389Z,8.15
2023-05-06T03:43:49.200Z,9.20
2023-05-06T03:46:16.531Z,9.05
2023-05-06T03:48:43.281Z,9.05
2023-05-06T03:51:10.020Z,9.20
2023-05-06T03:53:36.868Z,9.60
2023-05-06T03:56:03.588Z,8.93
2023-05-06T03:58:30.384Z,9.48
2023-05-06T04:00:57.250Z,9.30
2023-05-06T04:03:24.001Z,8.38
2023-05-06T04:05:51.419Z,8.38
2023-05-06T04:08:18.137Z,8.43
2023-05-06T04:10:45.547Z,8.48
2023-05-06T04:13:13.467Z,8.45
2023-05-06T04:15:41.816Z,7.82
2023-05-06T04:18:08.631Z,7.40
2023-05-06T04:20:36.089Z,7.90
2023-05-06T04:23:02.814Z,7.80
2023-05-06T04:25:30.178Z,7.93
2023-05-06T04:27:56.948Z,7.13
2023-05-06T04:30:23.746Z,7.68
2023-05-06T04:32:50.497Z,7.88
2023-05-06T04:35:17.413Z,7.38
2023-05-06T04:37:44.651Z,8.32
2023-05-06T04:40:14.030Z,7.35
2023-05-06T04:42:40.910Z,8.25
2023-05-06T04:45:08.369Z,8.10
2023-05-06T04:47:35.327Z,8.02
2023-05-06T04:50:02.123Z,8.35
2023-05-06T04:52:29.134Z,8.98
2023-05-06T04:54:55.947Z,8.48
2023-05-06T04:57:22.625Z,8.50
2023-05-06T04:59:49.361Z,7.93
2023-05-06T05:02:16.291Z,7.38
2023-05-06T05:04:43.045Z,6.78
2023-05-06T05:07:09.856Z,6.75
2023-05-06T05:09:36.840Z,6.97
2023-05-06T05:12:03.748Z,7.20
2023-05-06T05:14:30.526Z,6.47
2023-05-06T05:16:57.461Z,6.38
2023-05-06T05:19:24.363Z,6.30
2023-05-06T05:21:51.081Z,6.53
2023-05-06T05:24:17.814Z,7.22
2023-05-06T05:26:44.550Z,8.32
2023-05-06T05:29:11.477Z,9.63
2023-05-06T05:31:38.300Z,9.15
2023-05-06T05:34:04.978Z,8.02
2023-05-06T05:36:31.789Z,8.70
2023-05-06T05:38:58.493Z,7.85
2023-05-06T05:41:26.972Z,7.20
2023-05-06T05:43:53.721Z,7.38
2023-05-06T05:46:20.465Z,7.43
2023-05-06T05:48:47.198Z,8.25
2023-05-06T05:51:13.979Z,7.30
2023-05-06T05:53:40.749Z,8.32
2023-05-06T05:56:07.661Z,8.60
2023-05-06T05:58:34.611Z,8.07
2023-05-06T06:01:02.013Z,8.63
2023-05-06T06:03:29.015Z,8.90
2023-05-06T06:05:56.078Z,8.63
2023-05-06T06:08:23.053Z,9.27
2023-05-06T06:10:49.800Z,9.05
2023-05-06T06:13:16.643Z,9.68
2023-05-06T06:15:43.482Z,9.13
2023-05-06T06:18:10.346Z,9.35
2023-05-06T06:20:38.111Z,9.50
2023-05-06T06:23:04.908Z,8.48
2023-05-06T06:25:31.782Z,9.65
2023-05-06T06:27:58.597Z,8.20
2023-05-06T06:30:25.554Z,8.32
2023-05-06T06:32:54.001Z,8.60
2023-05-06T06:35:20.917Z,8.30
2023-05-06T06:37:47.868Z,8.40
2023-05-06T06:40:15.068Z,6.60
2023-05-06T06:42:41.927Z,6.47
2023-05-06T06:45:10.344Z,5.63
2023-05-06T06:47:37.468Z,5.30
2023-05-06T06:50:04.852Z,4.68
2023-05-06T06:52:31.920Z,5.00
2023-05-06T06:54:58.828Z,5.13
2023-05-06T06:57:25.691Z,4.40
2023-05-06T06:59:53.984Z,4.15
2023-05-06T07:02:21.568Z,4.63
2023-05-06T07:04:48.566Z,4.15
2023-05-06T07:07:15.568Z,4.68
2023-05-06T07:09:42.413Z,3.90
2023-05-06T07:12:09.606Z,3.90
2023-05-06T07:14:36.820Z,3.42
2023-05-06T07:17:03.767Z,3.70
2023-05-06T07:19:31.934Z,3.40
2023-05-06T07:21:58.935Z,3.33
2023-05-06T07:24:25.775Z,3.78
2023-05-06T07:26:52.695Z,3.33
2023-05-06T07:29:19.530Z,3.47
2023-05-06T07:31:46.345Z,3.50
2023-05-06T07:34:13.094Z,3.30
2023-05-06T07:36:41.146Z,3.20
2023-05-06T07:39:08.117Z,2.85
2023-05-06T07:41:35.179Z,3.65
2023-05-06T07:44:02.356Z,3.97
2023-05-06T07:46:29.304Z,3.20
2023-05-06T07:48:56.210Z,3.15
2023-05-06T07:51:23.176Z,2.70
2023-05-06T07:53:49.971Z,2.78
2023-05-06T07:56:18.218Z,2.65
2023-05-06T07:58:44.962Z,2.60
2023-05-06T08:01:11.777Z,2.92
2023-05-06T08:03:38.716Z,2.38
2023-05-06T08:06:05.662Z,2.70
2023-05-06T08:08:32.615Z,2.65
2023-05-06T08:10:59.541Z,2.55
2023-05-06T08:13:27.325Z,2.50
2023-05-06T08:15:54.376Z,2.38
2023-05-06T08:18:23.097Z,2.10
2023-05-06T08:20:51.451Z,1.98
2023-05-06T08:23:18.272Z,2.38
2023-05-06T08:25:45.132Z,2.42
2023-05-06T08:28:11.934Z,2.40
2023-05-06T08:30:38.783Z,2.13
2023-05-06T08:33:05.807Z,2.08
2023-05-06T08:35:32.667Z,1.80
2023-05-06T08:37:59.455Z,2.00
2023-05-06T08:40:27.390Z,1.67
2023-05-06T08:42:55.670Z,1.65
2023-05-06T08:45:23.695Z,1.40
2023-05-06T08:47:50.586Z,1.52
2023-05-06T08:50:17.636Z,1.92
2023-05-06T08:52:45.404Z,2.38
2023-05-06T08:55:12.700Z,2.83
2023-05-06T08:57:40.343Z,2.13
2023-05-06T09:00:11.328Z,1.63
2023-05-06T09:02:41.240Z,1.50
2023-05-06T09:05:10.525Z,1.23
2023-05-06T09:07:37.885Z,1.30
2023-05-06T09:10:13.209Z,1.10
2023-05-06T09:12:40.348Z,1.20
2023-05-06T09:15:08.111Z,1.08
2023-05-06T09:17:35.058Z,1.30
2023-05-06T09:20:02.263Z,1.10
2023-05-06T09:22:31.178Z,1.00
2023-05-06T09:24:59.011Z,1.02
2023-05-06T09:27:31.587Z,1.20
2023-05-06T09:30:07.940Z,1.10
2023-05-06T09:32:38.184Z,1.00
2023-05-06T09:35:07.391Z,0.90
2023-05-06T09:37:34.430Z,0.98
2023-05-06T09:40:01.509Z,2.20
2023-05-06T09:42:29.733Z,2.10
2023-05-06T09:45:07.445Z,2.30
2023-05-06T09:47:35.616Z,2.08
2023-05-06T09:50:03.537Z,1.80
2023-05-06T09:52:31.595Z,2.00
2023-05-06T09:54:58.920Z,2.08
2023-05-06T09:57:26.168Z,1.35
2023-05-06T09:59:53.911Z,1.27
2023-05-06T10:02:21.035Z,1.20
2023-05-06T10:04:49.514Z,1.02
2023-05-06T10:07:22.860Z,0.93
2023-05-06T10:09:51.463Z,1.33
2023-05-06T10:12:19.436Z,0.95
2023-05-06T10:14:46.439Z,0.85
2023-05-06T10:17:13.565Z,1.00
2023-05-06T10:19:43.004Z,0.95
2023-05-06T10:22:22.877Z,0.80
2023-05-06T10:24:59.305Z,0.80
2023-05-06T10:27:27.650Z,0.85
2023-05-06T10:29:59.770Z,0.93
2023-05-06T10:32:29.602Z,0.85
2023-05-06T10:34:57.356Z,0.90
2023-05-06T10:37:27.120Z,0.82
2023-05-06T10:39:55.110Z,1.02
2023-05-06T10:42:27.329Z,0.88
2023-05-06T10:44:59.039Z,0.70
2023-05-06T10:47:26.340Z,1.05
2023-05-06T10:50:19.172Z,0.90
2023-05-06T10:52:47.144Z,0.93
2023-05-06T10:55:34.161Z,0.80
2023-05-06T10:58:07.217Z,0.88
2023-05-06T11:00:34.954Z,1.02
2023-05-06T11:03:03.540Z,0.70
2023-05-06T11:05:30.698Z,1.00
2023-05-06T11:08:10.879Z,0.90
2023-05-06T11:10:37.965Z,0.80
2023-05-06T11:13:22.367Z,0.93
2023-05-06T11:15:52.722Z,0.80
2023-05-06T11:18:25.974Z,1.00
2023-05-06T11:21:22.336Z,1.07
2023-05-06T11:24:12.517Z,1.55
2023-05-06T11:26:41.260Z,1.15
2023-05-06T11:29:09.567Z,0.90
2023-05-06T11:31:39.288Z,1.02
2023-05-06T11:34:09.197Z,0.80
2023-05-06T11:36:37.577Z,0.80
2023-05-06T11:39:10.840Z,1.05
2023-05-06T11:41:41.670Z,1.03
2023-05-06T11:44:10.307Z,2.55
2023-05-06T11:46:38.543Z,1.40
2023-05-06T11:49:05.757Z,0.95
2023-05-06T11:51:33.071Z,0.70
2023-05-06T11:54:10.462Z,0.88
2023-05-06T11:56:54.209Z,0.85
2023-05-06T11:59:29.930Z,0.90
2023-05-06T12:01:58.016Z,0.80
2023-05-06T12:04:24.832Z,0.80
2023-05-06T12:06:51.966Z,0.60
2023-05-06T12:09:18.981Z,1.08
2023-05-06T12:11:45.887Z,0.90
2023-05-06T12:14:12.735Z,0.82
2023-05-06T12:16:40.590Z,0.80
2023-05-06T12:19:18.541Z,0.70
2023-05-06T12:21:46.600Z,0.60
2023-05-06T12:24:13.673Z,0.70
2023-05-06T12:26:46.000Z,0.80
2023-05-06T12:29:16.219Z,0.80
2023-05-06T12:31:47.549Z,1.08
2023-05-06T12:34:16.494Z,0.77
2023-05-06T12:36:45.017Z,0.80
2023-05-06T12:39:12.342Z,0.98
2023-05-06T12:41:46.501Z,0.77
2023-05-06T12:44:38.995Z,1.00
2023-05-06T12:47:18.356Z,0.77
2023-05-06T12:49:54.062Z,1.30
2023-05-06T12:52:22.500Z,0.80
2023-05-06T12:54:49.927Z,1.08
2023-05-06T12:57:16.893Z,1.90
2023-05-06T12:59:45.295Z,1.95
2023-05-06T13:02:12.455Z,1.17
2023-05-06T13:04:39.800Z,1.08
2023-05-06T13:07:06.908Z,4.03
2023-05-06T13:09:33.825Z,0.85
2023-05-06T13:12:01.383Z,1.00
2023-05-06T13:14:28.131Z,0.90
2023-05-06T13:16:55.031Z,0.80
2023-05-06T13:19:32.326Z,2.20
2023-05-06T13:22:01.043Z,3.22
2023-05-06T13:24:28.433Z,1.40
2023-05-06T13:26:56.652Z,1.50
2023-05-06T13:29:24.065Z,0.90
2023-05-06T13:31:51.288Z,0.57
2023-05-06T13:34:18.480Z,0.70
2023-05-06T13:36:45.332Z,0.98
2023-05-06T13:39:12.236Z,0.60
2023-05-06T13:41:39.054Z,0.70
2023-05-06T13:44:06.713Z,0.90
2023-05-06T13:46:33.722Z,0.95
2023-05-06T13:49:00.515Z,0.90
2023-05-06T13:51:30.206Z,0.80
2023-05-06T13:53:57.061Z,0.80
2023-05-06T13:56:23.937Z,0.68
2023-05-06T13:58:50.935Z,0.70
2023-05-06T14:01:17.925Z,1.00
2023-05-06T14:03:44.820Z,0.80
2023-05-06T14:06:11.908Z,0.70
2023-05-06T14:08:38.700Z,0.90
2023-05-06T14:11:05.708Z,0.60
2023-05-06T14:13:33.767Z,0.82
2023-05-06T14:16:00.884Z,0.80
2023-05-06T14:18:28.059Z,0.70
2023-05-06T14:20:55.375Z,0.63
2023-05-06T14:23:22.447Z,0.70
2023-05-06T14:25:49.752Z,1.10
2023-05-06T14:28:16.671Z,0.70
2023-05-06T14:30:44.524Z,0.80
2023-05-06T14:33:11.896Z,0.75
2023-05-06T14:35:42.828Z,0.70
2023-05-06T14:38:11.015Z,0.60
2023-05-06T14:40:39.052Z,0.85
2023-05-06T14:43:07.689Z,0.60
2023-05-06T14:45:34.773Z,0.80
2023-05-06T14:48:01.748Z,0.80
2023-05-06T14:50:28.961Z,0.65
2023-05-06T14:52:55.865Z,0.90
2023-05-06T14:55:22.865Z,0.93
2023-05-06T14:57:49.857Z,0.90
2023-05-06T15:00:17.679Z,0.90
2023-05-06T15:02:44.552Z,0.82
2023-05-06T15:05:12.723Z,0.90
2023-05-06T15:07:39.739Z,0.70
2023-05-06T15:10:07.044Z,0.90
2023-05-06T15:12:33.964Z,0.80
2023-05-06T15:15:00.930Z,0.80
2023-05-06T15:17:27.847Z,0.90
2023-05-06T15:19:54.635Z,1.00
2023-05-06T15:22:21.441Z,0.70
2023-05-06T15:24:48.291Z,0.65
2023-05-06T15:27:15.541Z,1.13
2023-05-06T15:29:42.425Z,1.30
2023-05-06T15:32:09.396Z,1.00
2023-05-06T15:34:36.316Z,1.73
2023-05-06T15:37:03.457Z,1.02
2023-05-06T15:39:36.879Z,1.05
2023-05-06T15:42:04.202Z,0.93
2023-05-06T15:44:32.512Z,0.70
2023-05-06T15:46:59.866Z,0.90
2023-05-06T15:49:49.419Z,0.82
2023-05-06T15:52:13.750Z,0.77
2023-05-06T15:54:41.194Z,0.80
2023-05-06T15:57:08.615Z,0.85
2023-05-06T15:59:35.682Z,0.82
2023-05-06T16:04:34.039Z,0.80
2023-05-06T16:07:02.304Z,1.45
2023-05-06T16:09:31.975Z,3.40
2023-05-06T16:11:58.957Z,2.80
2023-05-06T16:14:25.929Z,1.92
2023-05-06T16:16:52.880Z,1.88
2023-05-06T16:19:19.891Z,1.20
2023-05-06T16:21:46.815Z,3.40
2023-05-06T16:24:13.688Z,6.32
2023-05-06T16:26:40.618Z,2.28
2023-05-06T16:29:07.473Z,1.20
2023-05-06T16:31:34.324Z,0.80
2023-05-06T16:34:01.158Z,1.92
2023-05-06T16:36:28.973Z,1.60
2023-05-06T16:38:56.016Z,1.88
2023-05-06T16:41:22.897Z,1.25
2023-05-06T16:43:50.197Z,2.70
2023-05-06T16:46:17.099Z,2.88
2023-05-06T16:48:43.986Z,3.08
2023-05-06T16:51:12.588Z,2.33
2023-05-06T16:53:39.561Z,1.70
2023-05-06T16:56:07.026Z,1.40
2023-05-06T16:58:33.871Z,1.60
2023-05-06T17:01:00.830Z,2.10
2023-05-06T17:03:27.654Z,1.60
2023-05-06T17:05:55.111Z,1.60
2023-05-06T17:08:24.380Z,4.22
2023-05-06T17:10:53.507Z,2.60
2023-05-06T17:13:20.387Z,2.40
2023-05-06T17:15:47.523Z,1.95
2023-05-06T17:18:14.547Z,2.50
2023-05-06T17:20:54.531Z,2.45
2023-05-06T17:23:23.190Z,1.92
2023-05-06T17:25:49.903Z,2.00
2023-05-06T17:28:18.095Z,2.35
2023-05-06T17:30:48.990Z,1.92
2023-05-06T17:33:16.544Z,2.80
2023-05-06T17:35:43.708Z,2.45
2023-05-06T17:38:12.726Z,2.35
2023-05-06T17:40:39.726Z,2.90
2023-05-06T17:43:08.164Z,4.60
2023-05-06T17:45:35.158Z,3.53
2023-05-06T17:48:02.492Z,3.53
2023-05-06T17:50:29.374Z,2.15
2023-05-06T17:52:56.273Z,2.47
2023-05-06T17:55:23.596Z,2.85
2023-05-06T17:57:52.876Z,2.53
2023-05-06T18:00:20.411Z,1.90
2023-05-06T18:02:47.818Z,2.60
2023-05-06T18:05:15.120Z,2.50
2023-05-06T18:07:42.710Z,3.25
2023-05-06T18:10:10.324Z,3.20
2023-05-06T18:12:37.453Z,3.72
2023-05-06T18:15:05.384Z,3.95
2023-05-06T18:17:32.186Z,3.42
2023-05-06T18:19:59.113Z,3.90
2023-05-06T18:22:25.911Z,2.15
2023-05-06T18:24:55.605Z,2.03
2023-05-06T18:27:22.987Z,1.90
2023-05-06T18:29:50.007Z,11.48
2023-05-06T18:32:17.232Z,2.80
2023-05-06T18:34:44.118Z,1.60
2023-05-06T18:37:10.903Z,1.60
2023-05-06T18:39:42.255Z,2.17
2023-05-06T18:42:09.489Z,1.30
2023-05-06T18:44:36.382Z,1.10
2023-05-06T18:47:03.179Z,1.00
2023-05-06T18:49:31.359Z,1.20
2023-05-06T18:51:58.271Z,1.20
2023-05-06T18:54:25.250Z,1.63
2023-05-06T18:56:52.203Z,1.75
2023-05-06T18:59:20.012Z,1.80
2023-05-06T19:01:47.124Z,1.50
2023-05-06T19:04:14.024Z,1.67
2023-05-06T19:06:41.270Z,1.27
2023-05-06T19:09:08.403Z,1.58
2023-05-06T19:11:35.678Z,1.92
2023-05-06T19:14:03.088Z,1.67
2023-05-06T19:16:29.968Z,2.50
2023-05-06T19:18:56.906Z,3.50
2023-05-06T19:21:23.821Z,2.50
2023-05-06T19:23:51.101Z,1.88
2023-05-06T19:26:17.871Z,2.40
2023-05-06T19:28:44.688Z,3.22
2023-05-06T19:31:11.869Z,2.53
2023-05-06T19:33:39.129Z,2.30
2023-05-06T19:36:06.859Z,2.45
2023-05-06T19:38:34.305Z,2.50
2023-05-06T19:41:01.470Z,2.35
2023-05-06T19:43:28.563Z,2.50
2023-05-06T19:45:55.444Z,2.90
2023-05-06T19:48:23.904Z,3.00
2023-05-06T19:50:51.953Z,3.08
2023-05-06T19:53:19.151Z,3.10
2023-05-06T19:55:45.830Z,3.20
2023-05-06T19:58:14.296Z,3.35
2023-05-06T20:00:41.154Z,3.70
2023-05-06T20:03:08.340Z,3.60
2023-05-06T20:05:35.234Z,3.90
2023-05-06T20:08:02.294Z,4.07
2023-05-06T20:10:29.654Z,3.95
2023-05-06T20:12:57.891Z,4.05
2023-05-06T20:15:25.283Z,4.72
2023-05-06T20:17:52.313Z,4.88
2023-05-06T20:20:19.735Z,4.97
2023-05-06T20:22:46.557Z,5.22
2023-05-06T20:25:16.410Z,6.13
2023-05-06T20:27:44.095Z,6.10
2023-05-06T20:30:11.389Z,5.65
2023-05-06T20:32:40.688Z,6.90
2023-05-06T20:35:08.156Z,6.50
2023-05-06T20:37:35.622Z,6.97
2023-05-06T20:40:04.969Z,7.85
2023-05-06T20:42:32.102Z,8.43
2023-05-06T20:44:59.276Z,9.90
2023-05-06T20:47:26.540Z,9.77
2023-05-06T20:49:53.615Z,10.88
2023-05-06T20:52:21.883Z,11.57
2023-05-06T20:54:48.790Z,11.13
2023-05-06T20:57:16.723Z,11.10
2023-05-06T20:59:43.664Z,12.25
2023-05-06T21:02:10.875Z,12.43
2023-05-06T21:04:37.801Z,12.50
2023-05-06T21:07:04.685Z,13.27
2023-05-06T21:09:31.593Z,13.30
2023-05-06T21:11:58.995Z,13.13
2023-05-06T21:14:26.903Z,14.27
2023-05-06T21:16:53.903Z,14.07
2023-05-06T21:19:21.126Z,13.88
2023-05-06T21:21:48.526Z,14.20
2023-05-06T21:24:15.370Z,14.45
2023-05-06T21:26:42.217Z,15.27
2023-05-06T21:29:09.366Z,15.65
2023-05-06T21:31:36.595Z,15.20
2023-05-06T21:34:04.462Z,15.50
2023-05-06T21:36:31.513Z,16.38
2023-05-06T21:39:10.685Z,15.07
2023-05-06T21:41:38.169Z,16.00
2023-05-06T21:44:05.691Z,16.23
2023-05-06T21:46:32.883Z,16.23
2023-05-06T21:49:00.607Z,15.75
2023-05-06T21:51:28.611Z,16.25
2023-05-06T21:53:55.581Z,16.20
2023-05-06T21:56:22.636Z,16.55
2023-05-06T21:58:49.537Z,15.85
2023-05-06T22:01:16.373Z,16.38
2023-05-06T22:03:44.254Z,16.70
2023-05-06T22:06:11.468Z,16.23
2023-05-06T22:08:39.312Z,17.27
2023-05-06T22:11:06.285Z,16.75
2023-05-06T22:13:33.142Z,17.02
2023-05-06T22:15:59.944Z,16.73
2023-05-06T22:18:30.339Z,17.65
2023-05-06T22:20:58.969Z,17.95
2023-05-06T22:23:26.231Z,18.20
2023-05-06T22:25:53.048Z,18.60
2023-05-06T22:28:20.177Z,18.33
2023-05-06T22:30:46.956Z,17.92
2023-05-06T22:33:13.892Z,18.80
2023-05-06T22:35:40.997Z,18.52
2023-05-06T22:38:08.601Z,18.45
2023-05-06T22:40:35.400Z,19.35
2023-05-06T22:43:02.197Z,20.23
2023-05-06T22:45:29.115Z,20.38
2023-05-06T22:47:56.276Z,21.27
2023-05-06T22:50:23.116Z,22.10
2023-05-06T22:52:49.893Z,22.45
2023-05-06T22:55:16.825Z,22.15
2023-05-06T22:57:43.738Z,22.95
2023-05-06T23:00:12.870Z,23.67
2023-05-06T23:02:40.071Z,23.20
2023-05-06T23:05:07.287Z,25.02
2023-05-06T23:07:34.080Z,24.27
2023-05-06T23:10:01.202Z,25.83
2023-05-06T23:12:32.523Z,25.52
2023-05-06T23:15:00.390Z,24.50
2023-05-06T23:17:27.279Z,25.55
2023-05-06T23:19:54.091Z,27.05
2023-05-06T23:22:20.814Z,28.75
2023-05-06T23:24:47.616Z,27.50
2023-05-06T23:27:14.392Z,27.95
2023-05-06T23:29:41.551Z,28.05
2023-05-06T23:32:08.431Z,28.67
2023-05-06T23:34:35.179Z,27.83
2023-05-06T23:37:02.079Z,27.73
2023-05-06T23:39:28.872Z,28.08
2023-05-06T23:41:55.661Z,29.67
2023-05-06T23:44:23.263Z,29.15
2023-05-06T23:46:50.086Z,29.45
2023-05-06T23:49:17.059Z,29.02
2023-05-06T23:51:43.908Z,30.23
2023-05-06T23:54:10.776Z,28.50
2023-05-06T23:56:37.538Z,29.70
2023-05-06T23:59:04.462Z,27.35
